Terminal Aerodrome Forecast
Issued by NWS

Home | Current Version | Previous Version | Text Only | Print | Product List | Glossary On
Versions: 1 2 3 4 5 6 7 8 9 10 11 12 13 14 15 16 17 18 19
000
FTUS43 KSGF 021700 CCB
TAFJLN
TAF COR
KJLN 021759Z 0218/0318 36005KT P6SM SCT025 SCT030
     FM022100 35005KT P6SM VCSH SCT010 BKN025
     FM030100 VRB04KT P6SM SCT030 BKN080
      TEMPO 0309/0312 4SM BR OVC009
     FM031400 02005KT P6SM OVC020=

USA.gov is the U.S. government's official web portal to all federal, state and local government web resources and services.